createdAt,value
2023-01-07T00:01:36.731Z,65.76
2023-01-07T00:04:05.220Z,65.90
2023-01-07T00:06:33.829Z,65.51
2023-01-07T00:09:01.420Z,65.63
2023-01-07T00:11:30.093Z,65.64
2023-01-07T00:13:58.011Z,65.78
2023-01-07T00:16:26.557Z,66.14
2023-01-07T00:18:54.387Z,65.58
2023-01-07T00:21:22.400Z,65.68
2023-01-07T00:23:50.201Z,65.50
2023-01-07T00:26:18.579Z,65.14
2023-01-07T00:28:48.594Z,64.91
2023-01-07T00:31:17.184Z,65.33
2023-01-07T00:33:47.574Z,65.20
2023-01-07T00:36:14.680Z,65.47
2023-01-07T00:38:41.704Z,65.51
2023-01-07T00:41:09.886Z,65.50
2023-01-07T00:43:37.155Z,65.23
2023-01-07T00:46:04.165Z,65.22
2023-01-07T00:48:31.363Z,64.78
2023-01-07T00:50:58.343Z,64.85
2023-01-07T00:53:25.622Z,64.75
2023-01-07T00:55:52.769Z,64.42
2023-01-07T00:58:22.581Z,64.12
2023-01-07T01:00:50.117Z,64.30
2023-01-07T01:03:17.553Z,64.09
2023-01-07T01:05:44.657Z,64.14
2023-01-07T01:08:11.657Z,63.71
2023-01-07T01:10:38.797Z,63.62
2023-01-07T01:13:05.806Z,63.35
2023-01-07T01:15:32.956Z,63.16
2023-01-07T01:18:00.015Z,62.71
2023-01-07T01:20:27.065Z,62.71
2023-01-07T01:22:54.176Z,62.61
2023-01-07T01:25:21.277Z,62.23
2023-01-07T01:27:48.398Z,61.59
2023-01-07T01:30:15.425Z,61.33
2023-01-07T01:32:42.535Z,60.87
2023-01-07T01:35:09.815Z,60.56
2023-01-07T01:37:36.859Z,60.41
2023-01-07T01:40:04.646Z,59.84
2023-01-07T01:42:32.123Z,59.62
2023-01-07T01:45:00.544Z,59.64
2023-01-07T01:47:30.577Z,59.39
2023-01-07T01:50:00.932Z,59.24
2023-01-07T01:52:31.818Z,59.43
2023-01-07T01:55:01.055Z,59.13
2023-01-07T01:57:29.435Z,59.28
2023-01-07T01:59:57.296Z,58.97
2023-01-07T02:02:28.944Z,59.06
2023-01-07T02:04:56.795Z,59.07
2023-01-07T02:07:23.914Z,58.70
2023-01-07T02:09:58.991Z,58.74
2023-01-07T02:12:26.309Z,58.63
2023-01-07T02:14:56.481Z,58.55
2023-01-07T02:17:23.839Z,58.35
2023-01-07T02:20:01.621Z,58.30
2023-01-07T02:22:43.094Z,58.71
2023-01-07T02:25:13.179Z,58.70
2023-01-07T02:27:43.354Z,58.46
2023-01-07T02:30:11.759Z,58.38
2023-01-07T02:32:40.037Z,58.65
2023-01-07T02:35:10.144Z,58.48
2023-01-07T02:37:45.638Z,58.76
2023-01-07T02:40:15.756Z,58.83
2023-01-07T02:42:44.102Z,58.92
2023-01-07T02:45:16.821Z,58.95
2023-01-07T02:47:48.200Z,58.60
2023-01-07T02:50:15.284Z,58.74
2023-01-07T02:52:42.437Z,58.67
2023-01-07T02:55:12.463Z,58.95
2023-01-07T02:57:42.553Z,58.94
2023-01-07T03:00:10.028Z,59.18
2023-01-07T03:02:40.204Z,59.00
2023-01-07T03:05:17.877Z,59.05
2023-01-07T03:07:47.968Z,59.37
2023-01-07T03:10:18.045Z,59.66
2023-01-07T03:12:48.223Z,59.55
2023-01-07T03:15:19.423Z,59.87
2023-01-07T03:17:49.634Z,59.80
2023-01-07T03:20:19.010Z,59.49
2023-01-07T03:22:47.234Z,59.58
2023-01-07T03:25:15.068Z,59.62
2023-01-07T03:27:43.295Z,60.03
2023-01-07T03:30:13.383Z,59.95
2023-01-07T03:32:43.501Z,59.76
2023-01-07T03:35:11.187Z,60.02
2023-01-07T03:37:39.435Z,59.98
2023-01-07T03:40:10.296Z,59.95
2023-01-07T03:42:40.771Z,59.47
2023-01-07T03:45:09.502Z,59.90
2023-01-07T03:47:37.812Z,59.90
2023-01-07T03:50:05.151Z,59.41
2023-01-07T03:52:32.428Z,59.79
2023-01-07T03:54:59.463Z,59.32
2023-01-07T03:57:26.490Z,59.79
2023-01-07T03:59:53.720Z,59.52
2023-01-07T04:02:20.867Z,59.47
2023-01-07T04:04:47.917Z,59.76
2023-01-07T04:07:15.046Z,59.55
2023-01-07T04:09:42.106Z,59.46
2023-01-07T04:12:09.304Z,59.52
2023-01-07T04:14:36.404Z,59.84
2023-01-07T04:17:03.443Z,59.67
2023-01-07T04:19:30.564Z,59.60
2023-01-07T04:21:57.641Z,59.75
2023-01-07T04:24:24.835Z,59.96
2023-01-07T04:26:51.804Z,59.51
2023-01-07T04:29:20.829Z,59.65
2023-01-07T04:31:48.081Z,59.98
2023-01-07T04:34:15.083Z,59.68
2023-01-07T04:36:42.542Z,59.79
2023-01-07T04:39:09.541Z,59.39
2023-01-07T04:41:36.637Z,59.85
2023-01-07T04:44:03.671Z,59.51
2023-01-07T04:46:30.729Z,59.50
2023-01-07T04:48:57.828Z,59.35
2023-01-07T04:51:24.909Z,59.42
2023-01-07T04:53:52.012Z,59.29
2023-01-07T04:56:19.183Z,59.30
2023-01-07T04:58:46.184Z,59.52
2023-01-07T05:01:13.410Z,59.29
2023-01-07T05:03:40.515Z,59.18
2023-01-07T05:06:07.607Z,59.33
2023-01-07T05:08:34.621Z,59.21
2023-01-07T05:11:02.471Z,59.57
2023-01-07T05:13:31.996Z,59.56
2023-01-07T05:15:59.238Z,59.70
2023-01-07T05:18:26.336Z,59.67
2023-01-07T05:20:53.330Z,59.67
2023-01-07T05:23:20.522Z,59.31
2023-01-07T05:25:47.551Z,59.20
2023-01-07T05:28:14.602Z,59.57
2023-01-07T05:30:41.759Z,59.55
2023-01-07T05:33:09.448Z,59.33
2023-01-07T05:35:36.530Z,59.34
2023-01-07T05:38:03.507Z,59.45
2023-01-07T05:40:30.504Z,59.60
2023-01-07T05:42:57.574Z,59.65
2023-01-07T05:45:24.825Z,59.41
2023-01-07T05:47:51.872Z,59.57
2023-01-07T05:50:18.887Z,59.49
2023-01-07T05:52:45.950Z,59.28
2023-01-07T05:55:13.027Z,59.25
2023-01-07T05:57:40.321Z,59.49
2023-01-07T06:00:08.109Z,59.15
2023-01-07T06:02:35.161Z,59.45
2023-01-07T06:05:02.214Z,59.65
2023-01-07T06:07:29.202Z,59.48
2023-01-07T06:09:56.237Z,59.21
2023-01-07T06:12:23.267Z,59.63
2023-01-07T06:14:50.366Z,59.57
2023-01-07T06:17:17.427Z,59.14
2023-01-07T06:19:44.580Z,59.40
2023-01-07T06:22:11.564Z,59.62
2023-01-07T06:24:38.703Z,59.56
2023-01-07T06:27:05.866Z,59.70
2023-01-07T06:29:33.063Z,59.83
2023-01-07T06:32:00.185Z,59.55
2023-01-07T06:34:27.183Z,59.55
2023-01-07T06:36:54.203Z,59.34
2023-01-07T06:39:21.282Z,59.64
2023-01-07T06:41:48.319Z,59.67
2023-01-07T06:44:15.465Z,59.55
2023-01-07T06:46:42.569Z,59.46
2023-01-07T06:49:09.666Z,59.91
2023-01-07T06:51:36.670Z,59.87
2023-01-07T06:54:03.844Z,59.68
2023-01-07T06:56:31.065Z,59.87
2023-01-07T06:58:58.082Z,60.30
2023-01-07T07:01:25.271Z,60.43
2023-01-07T07:03:52.356Z,60.39
2023-01-07T07:06:19.513Z,60.45
2023-01-07T07:08:46.588Z,60.66
2023-01-07T07:11:13.601Z,60.66
2023-01-07T07:13:40.629Z,60.83
2023-01-07T07:16:07.892Z,60.61
2023-01-07T07:18:35.009Z,60.65
2023-01-07T07:21:02.181Z,60.98
2023-01-07T07:23:29.282Z,60.75
2023-01-07T07:25:56.306Z,61.42
2023-01-07T07:28:23.449Z,61.31
2023-01-07T07:30:50.573Z,61.77
2023-01-07T07:33:19.784Z,61.65
2023-01-07T07:35:47.528Z,62.02
2023-01-07T07:38:14.723Z,61.75
2023-01-07T07:40:41.745Z,61.81
2023-01-07T07:43:11.659Z,61.71
2023-01-07T07:45:40.201Z,61.73
2023-01-07T07:48:08.164Z,62.09
2023-01-07T07:50:35.648Z,61.80
2023-01-07T07:53:02.785Z,61.95
2023-01-07T07:55:30.165Z,61.62
2023-01-07T07:57:58.672Z,61.83
2023-01-07T08:00:25.868Z,61.50
2023-01-07T08:02:52.945Z,61.12
2023-01-07T08:05:20.064Z,61.09
2023-01-07T08:07:47.141Z,61.03
2023-01-07T08:10:14.167Z,60.87
2023-01-07T08:12:41.225Z,60.87
2023-01-07T08:15:08.806Z,60.80
2023-01-07T08:17:36.913Z,60.51
2023-01-07T08:20:05.815Z,59.98
2023-01-07T08:22:33.764Z,59.70
2023-01-07T08:25:00.998Z,59.78
2023-01-07T08:27:28.350Z,59.63
2023-01-07T08:29:56.128Z,59.04
2023-01-07T08:32:23.225Z,58.95
2023-01-07T08:34:50.356Z,59.00
2023-01-07T08:37:17.549Z,59.16
2023-01-07T08:39:44.713Z,58.71
2023-01-07T08:42:11.828Z,58.60
2023-01-07T08:44:38.883Z,58.32
2023-01-07T08:47:06.038Z,58.16
2023-01-07T08:49:33.114Z,57.98
2023-01-07T08:52:00.182Z,57.70
2023-01-07T08:54:27.479Z,57.50
2023-01-07T08:56:54.531Z,57.04
2023-01-07T08:59:21.764Z,56.86
2023-01-07T09:01:48.829Z,56.47
2023-01-07T09:04:15.984Z,56.37
2023-01-07T09:06:43.168Z,56.41
2023-01-07T09:09:10.842Z,56.40
2023-01-07T09:11:38.269Z,56.58
2023-01-07T09:14:05.338Z,56.46
2023-01-07T09:16:32.431Z,56.29
2023-01-07T09:18:59.802Z,56.31
2023-01-07T09:21:26.835Z,56.41
2023-01-07T09:23:53.850Z,56.81
2023-01-07T09:26:20.825Z,55.48
2023-01-07T09:28:47.504Z,54.91
2023-01-07T09:31:14.183Z,54.67
2023-01-07T09:33:41.080Z,54.44
2023-01-07T09:36:07.908Z,54.11
2023-01-07T09:38:34.667Z,53.73
2023-01-07T09:41:01.472Z,54.05
2023-01-07T09:44:00.094Z,54.18
2023-01-07T09:46:18.556Z,53.78
2023-01-07T09:48:49.095Z,52.20
2023-01-07T09:51:21.384Z,52.36
2023-01-07T09:53:50.849Z,53.05
2023-01-07T09:56:20.951Z,52.62
2023-01-07T09:58:48.847Z,53.18
2023-01-07T10:01:25.504Z,53.21
2023-01-07T10:04:01.602Z,52.80
2023-01-07T10:06:43.792Z,52.81
2023-01-07T10:09:20.312Z,52.89
2023-01-07T10:11:47.143Z,53.00
2023-01-07T10:14:23.736Z,53.29
2023-01-07T10:16:50.671Z,53.35
2023-01-07T10:19:17.621Z,53.16
2023-01-07T10:21:53.586Z,53.12
2023-01-07T10:24:23.732Z,52.96
2023-01-07T10:26:52.428Z,52.63
2023-01-07T10:29:19.299Z,52.72
2023-01-07T10:31:46.575Z,52.91
2023-01-07T10:34:15.694Z,52.68
2023-01-07T10:36:50.047Z,52.74
2023-01-07T10:39:29.700Z,52.69
2023-01-07T10:42:05.474Z,52.47
2023-01-07T10:44:41.465Z,52.88
2023-01-07T10:47:09.280Z,52.30
2023-01-07T10:49:36.193Z,52.74
2023-01-07T10:52:13.750Z,52.39
2023-01-07T10:54:41.600Z,52.55
2023-01-07T10:57:16.166Z,52.38
2023-01-07T10:59:48.200Z,52.30
2023-01-07T11:02:17.292Z,52.15
2023-01-07T11:04:44.161Z,51.64
2023-01-07T11:07:14.979Z,51.70
2023-01-07T11:09:43.119Z,51.70
2023-01-07T11:12:19.567Z,51.46
2023-01-07T11:14:47.051Z,51.50
2023-01-07T11:17:13.912Z,51.25
2023-01-07T11:19:43.213Z,51.47
2023-01-07T11:22:28.205Z,51.32
2023-01-07T11:24:56.351Z,51.35
2023-01-07T11:27:24.702Z,52.23
2023-01-07T11:30:00.658Z,51.65
2023-01-07T11:32:29.088Z,51.65
2023-01-07T11:34:57.443Z,51.25
2023-01-07T11:37:31.452Z,51.05
2023-01-07T11:39:59.754Z,51.29
2023-01-07T11:42:36.437Z,51.54
2023-01-07T11:45:23.018Z,51.34
2023-01-07T11:47:50.921Z,50.63
2023-01-07T11:50:22.060Z,50.85
2023-01-07T11:52:58.637Z,50.63
2023-01-07T11:55:25.670Z,50.99
2023-01-07T11:58:00.913Z,50.72
2023-01-07T12:00:41.045Z,50.64
2023-01-07T12:03:12.395Z,50.93
2023-01-07T12:05:40.625Z,50.69
2023-01-07T12:08:08.028Z,50.88
2023-01-07T12:10:36.728Z,50.42
2023-01-07T12:13:05.345Z,50.30
2023-01-07T12:15:35.053Z,50.43
2023-01-07T12:18:02.892Z,50.49
2023-01-07T12:20:36.150Z,50.11
2023-01-07T12:23:03.230Z,50.38
2023-01-07T12:25:31.804Z,50.17
2023-01-07T12:28:09.433Z,50.15
2023-01-07T12:30:44.287Z,50.21
2023-01-07T12:33:20.557Z,49.77
2023-01-07T12:35:47.453Z,49.91
2023-01-07T12:38:25.447Z,49.82
2023-01-07T12:40:55.992Z,49.67
2023-01-07T12:43:26.258Z,49.97
2023-01-07T12:45:55.199Z,49.74
2023-01-07T12:48:29.065Z,49.71
2023-01-07T12:50:58.462Z,49.67
2023-01-07T12:53:34.430Z,49.42
2023-01-07T12:56:03.616Z,49.64
2023-01-07T12:58:30.455Z,49.63
2023-01-07T13:01:02.547Z,49.64
2023-01-07T13:03:37.499Z,49.66
2023-01-07T13:06:08.727Z,49.57
2023-01-07T13:08:41.187Z,49.17
2023-01-07T13:11:15.200Z,49.29
2023-01-07T13:13:46.049Z,49.88
2023-01-07T13:16:12.769Z,49.76
2023-01-07T13:18:39.487Z,49.75
2023-01-07T13:21:08.089Z,49.65
2023-01-07T13:23:54.585Z,50.09
2023-01-07T13:26:28.967Z,50.12
2023-01-07T13:29:08.193Z,49.92
2023-01-07T13:31:51.455Z,50.07
2023-01-07T13:34:26.668Z,50.70
2023-01-07T13:37:03.585Z,50.16
2023-01-07T13:39:30.757Z,50.64
2023-01-07T13:42:06.840Z,50.33
2023-01-07T13:44:33.738Z,50.77
2023-01-07T13:47:02.645Z,50.72
2023-01-07T13:49:31.390Z,50.54
2023-01-07T13:52:12.852Z,50.64
2023-01-07T13:54:49.429Z,50.79
2023-01-07T13:57:25.486Z,50.62
2023-01-07T13:59:53.669Z,50.86
2023-01-07T14:02:25.151Z,50.80
2023-01-07T14:04:59.261Z,50.81
2023-01-07T14:07:26.035Z,51.04
2023-01-07T14:09:54.961Z,51.03
2023-01-07T14:12:28.878Z,50.97
2023-01-07T14:14:55.734Z,50.91
2023-01-07T14:17:32.522Z,51.26
2023-01-07T14:20:06.039Z,51.11
2023-01-07T14:22:42.133Z,50.89
2023-01-07T14:25:09.029Z,51.31
2023-01-07T14:27:39.122Z,51.25
2023-01-07T14:30:17.039Z,51.22
2023-01-07T14:32:44.268Z,51.20
2023-01-07T14:35:11.119Z,51.00
2023-01-07T14:37:43.037Z,51.25
2023-01-07T14:40:19.826Z,51.05
2023-01-07T14:42:50.171Z,51.21
2023-01-07T14:45:26.481Z,51.00
2023-01-07T14:47:54.308Z,50.78
2023-01-07T14:50:22.009Z,50.89
2023-01-07T14:52:57.323Z,50.65
2023-01-07T14:55:24.232Z,50.89
2023-01-07T14:58:00.586Z,50.56
2023-01-07T15:00:28.467Z,50.90
2023-01-07T15:03:09.284Z,50.61
2023-01-07T15:05:39.291Z,50.70
2023-01-07T15:08:29.477Z,50.81
2023-01-07T15:11:06.334Z,50.50
2023-01-07T15:13:45.294Z,50.31
2023-01-07T15:16:12.672Z,50.50
2023-01-07T15:18:48.425Z,50.33
2023-01-07T15:21:24.483Z,49.99
2023-01-07T15:23:51.622Z,50.41
2023-01-07T15:26:26.289Z,50.01
2023-01-07T15:29:02.410Z,50.39
2023-01-07T15:31:32.592Z,50.01
2023-01-07T15:33:59.622Z,50.05
2023-01-07T15:36:29.686Z,49.96
2023-01-07T15:38:57.505Z,49.97
2023-01-07T15:41:27.124Z,49.88
2023-01-07T15:43:54.453Z,49.82
2023-01-07T15:46:23.184Z,49.67
2023-01-07T15:48:59.450Z,49.44
2023-01-07T15:51:26.174Z,49.69
2023-01-07T15:53:55.322Z,49.01
2023-01-07T15:56:22.426Z,49.00
2023-01-07T15:58:49.257Z,48.54
2023-01-07T16:01:18.218Z,48.45
2023-01-07T16:03:45.451Z,48.29
2023-01-07T16:06:22.160Z,47.97
2023-01-07T16:08:48.985Z,47.85
2023-01-07T16:11:25.494Z,47.96
2023-01-07T16:14:02.489Z,47.59
2023-01-07T16:16:30.471Z,47.76
2023-01-07T16:18:58.321Z,47.95
2023-01-07T16:21:27.748Z,47.63
2023-01-07T16:23:54.603Z,47.79
2023-01-07T16:26:25.395Z,47.81
2023-01-07T16:28:55.135Z,47.56
2023-01-07T16:31:23.160Z,47.63
2023-01-07T16:33:52.040Z,47.83
2023-01-07T16:36:23.230Z,47.95
2023-01-07T16:38:51.605Z,47.91
2023-01-07T16:41:22.955Z,48.38
2023-01-07T16:43:50.859Z,48.04
2023-01-07T16:46:17.866Z,48.02
2023-01-07T16:48:45.011Z,47.93
2023-01-07T16:51:21.560Z,48.35
2023-01-07T16:53:48.680Z,47.96
2023-01-07T16:56:17.130Z,48.06
2023-01-07T16:58:53.818Z,47.91
2023-01-07T17:01:28.862Z,48.10
2023-01-07T17:03:57.848Z,47.60
2023-01-07T17:06:28.816Z,47.92
2023-01-07T17:08:56.491Z,47.44
2023-01-07T17:11:27.490Z,47.66
2023-01-07T17:13:54.295Z,47.63
2023-01-07T17:16:29.775Z,47.49
2023-01-07T17:18:57.331Z,47.37
2023-01-07T17:21:31.764Z,47.25
2023-01-07T17:23:58.955Z,47.34
2023-01-07T17:26:27.130Z,47.41
2023-01-07T17:28:55.210Z,47.28
2023-01-07T17:31:23.809Z,47.19
2023-01-07T17:33:51.351Z,47.47
2023-01-07T17:36:20.236Z,47.39
2023-01-07T17:38:47.147Z,46.97
2023-01-07T17:41:35.996Z,47.32
2023-01-07T17:44:03.279Z,47.19
2023-01-07T17:46:31.062Z,47.03
2023-01-07T17:48:58.462Z,47.03
2023-01-07T17:51:27.043Z,47.21
2023-01-07T17:53:55.644Z,47.54
2023-01-07T17:56:22.373Z,47.45
2023-01-07T17:58:49.210Z,47.01
2023-01-07T18:01:17.753Z,46.98
2023-01-07T18:03:46.510Z,47.24
2023-01-07T18:06:18.212Z,46.95
2023-01-07T18:08:46.139Z,46.59
2023-01-07T18:11:24.394Z,46.23
2023-01-07T18:13:51.032Z,46.26
2023-01-07T18:16:17.728Z,46.12
2023-01-07T18:21:11.641Z,46.15
2023-01-07T18:23:38.878Z,45.78
2023-01-07T18:26:06.092Z,45.79
2023-01-07T18:28:32.782Z,45.86
2023-01-07T18:30:59.585Z,45.88
2023-01-07T18:33:26.295Z,45.99
2023-01-07T18:35:53.682Z,46.09
2023-01-07T18:38:20.346Z,46.40
2023-01-07T18:40:47.023Z,46.44
2023-01-07T18:43:14.537Z,46.58
2023-01-07T18:45:41.707Z,46.90
2023-01-07T18:48:08.460Z,46.71
2023-01-07T18:50:35.340Z,47.19
2023-01-07T18:53:02.082Z,46.82
2023-01-07T18:55:29.662Z,47.23
2023-01-07T18:57:56.341Z,47.30
2023-01-07T19:00:23.268Z,47.73
2023-01-07T19:02:50.027Z,47.80
2023-01-07T19:05:16.698Z,47.83
2023-01-07T19:07:43.650Z,47.95
2023-01-07T19:10:10.552Z,48.18
2023-01-07T19:12:37.325Z,47.95
2023-01-07T19:15:04.725Z,47.78
2023-01-07T19:17:31.367Z,48.17
2023-01-07T19:19:58.015Z,47.99
2023-01-07T19:22:27.683Z,47.70
2023-01-07T19:24:56.863Z,48.14
2023-01-07T19:27:23.855Z,47.93
2023-01-07T19:29:51.837Z,47.92
2023-01-07T19:32:18.503Z,48.01
2023-01-07T19:34:45.124Z,47.81
2023-01-07T19:37:11.860Z,47.94
2023-01-07T19:39:39.330Z,47.51
2023-01-07T19:42:06.075Z,47.73
2023-01-07T19:44:34.573Z,47.89
2023-01-07T19:47:01.286Z,47.68
2023-01-07T19:49:31.884Z,47.45
2023-01-07T19:51:58.564Z,47.83
2023-01-07T19:54:25.228Z,47.40
2023-01-07T19:56:51.972Z,47.75
2023-01-07T19:59:18.694Z,47.41
2023-01-07T20:01:46.091Z,47.40
2023-01-07T20:04:12.795Z,47.62
2023-01-07T20:09:10.986Z,47.51
2023-01-07T20:11:38.793Z,47.52
2023-01-07T20:14:05.703Z,47.46
2023-01-07T20:16:33.944Z,47.19
2023-01-07T20:19:00.606Z,47.35
2023-01-07T20:21:27.747Z,47.14
2023-01-07T20:23:54.859Z,47.27
2023-01-07T20:26:23.268Z,47.45
2023-01-07T20:28:50.524Z,47.27
2023-01-07T20:31:18.464Z,46.87
2023-01-07T20:33:45.581Z,46.77
2023-01-07T20:36:12.422Z,47.20
2023-01-07T20:38:39.572Z,46.90
2023-01-07T20:41:07.482Z,46.62
2023-01-07T20:43:35.198Z,46.58
2023-01-07T20:46:02.875Z,46.72
2023-01-07T20:48:29.828Z,46.92
2023-01-07T20:50:57.228Z,46.66
2023-01-07T20:53:24.511Z,46.76
2023-01-07T20:55:59.574Z,46.72
2023-01-07T20:58:26.916Z,46.54
2023-01-07T21:00:54.008Z,46.39
2023-01-07T21:05:47.258Z,46.07
2023-01-07T21:08:13.969Z,46.40
2023-01-07T21:10:40.853Z,46.32
2023-01-07T21:13:07.689Z,46.18
2023-01-07T21:15:36.510Z,45.88
2023-01-07T21:18:03.298Z,45.54
2023-01-07T21:20:29.972Z,45.51
2023-01-07T21:22:56.612Z,45.16
2023-01-07T21:25:23.282Z,45.26
2023-01-07T21:27:50.025Z,45.74
2023-01-07T21:30:18.263Z,45.60
2023-01-07T21:32:45.239Z,45.64
2023-01-07T21:35:12.442Z,45.61
2023-01-07T21:37:39.434Z,45.70
2023-01-07T21:40:06.707Z,45.37
2023-01-07T21:42:34.903Z,45.88
2023-01-07T21:45:01.576Z,45.65
2023-01-07T21:47:29.968Z,45.53
2023-01-07T21:49:56.713Z,45.10
2023-01-07T21:52:23.436Z,45.34
2023-01-07T21:54:52.076Z,45.18
2023-01-07T21:57:19.777Z,44.68
2023-01-07T21:59:46.681Z,44.80
2023-01-07T22:02:13.960Z,44.61
2023-01-07T22:04:41.002Z,44.58
2023-01-07T22:07:12.264Z,44.04
2023-01-07T22:09:38.897Z,43.59
2023-01-07T22:12:05.871Z,43.57
2023-01-07T22:14:32.572Z,43.54
2023-01-07T22:16:59.187Z,43.25
2023-01-07T22:19:26.320Z,43.06
2023-01-07T22:21:52.983Z,43.05
2023-01-07T22:24:19.943Z,43.45
2023-01-07T22:26:46.643Z,43.45
2023-01-07T22:29:13.371Z,43.12
2023-01-07T22:31:40.097Z,43.47
2023-01-07T22:34:07.591Z,43.35
2023-01-07T22:36:35.430Z,43.58
2023-01-07T22:39:03.754Z,43.28
2023-01-07T22:41:32.046Z,43.55
2023-01-07T22:44:00.752Z,43.31
2023-01-07T22:46:29.063Z,43.17
2023-01-07T22:48:55.734Z,43.38
2023-01-07T22:51:25.282Z,43.71
2023-01-07T22:53:53.392Z,43.60
2023-01-07T22:56:19.990Z,43.81
2023-01-07T22:58:46.659Z,43.56
2023-01-07T23:01:14.800Z,43.34
2023-01-07T23:03:42.532Z,43.43
2023-01-07T23:06:10.469Z,43.03
2023-01-07T23:08:37.133Z,42.99
2023-01-07T23:11:04.373Z,42.85
2023-01-07T23:13:31.040Z,42.77
2023-01-07T23:16:00.939Z,42.96
2023-01-07T23:18:27.629Z,42.68
2023-01-07T23:20:54.254Z,42.98
2023-01-07T23:23:20.954Z,42.67
2023-01-07T23:25:48.591Z,43.22
2023-01-07T23:28:15.634Z,43.25
2023-01-07T23:30:42.411Z,43.15
2023-01-07T23:33:09.115Z,43.23
2023-01-07T23:35:35.807Z,43.45
2023-01-07T23:38:03.982Z,43.13
2023-01-07T23:40:30.623Z,43.16
2023-01-07T23:42:57.820Z,42.91
2023-01-07T23:45:24.624Z,42.88
2023-01-07T23:47:51.219Z,42.75
2023-01-07T23:50:18.086Z,42.79
2023-01-07T23:52:44.729Z,42.70
2023-01-07T23:55:11.458Z,42.89
2023-01-07T23:57:38.168Z,42.85
